createdAt,value
2023-03-05T00:02:09.353Z,46.10
2023-03-05T00:04:38.520Z,46.10
2023-03-05T00:07:09.416Z,46.20
2023-03-05T00:09:38.611Z,46.10
2023-03-05T00:12:09.795Z,46.20
2023-03-05T00:14:38.959Z,46.20
2023-03-05T00:17:08.112Z,46.20
2023-03-05T00:19:37.352Z,46.30
2023-03-05T00:22:06.681Z,46.20
2023-03-05T00:24:35.886Z,46.10
2023-03-05T00:27:05.396Z,46.10
2023-03-05T00:29:36.024Z,46.00
2023-03-05T00:32:05.244Z,46.10
2023-03-05T00:34:34.389Z,46.00
2023-03-05T00:37:03.790Z,46.10
2023-03-05T00:39:32.951Z,46.00
2023-03-05T00:42:02.123Z,46.00
2023-03-05T00:44:31.309Z,46.00
2023-03-05T00:47:01.950Z,46.00
2023-03-05T00:49:31.196Z,46.00
2023-03-05T00:52:00.413Z,45.90
2023-03-05T00:54:29.607Z,45.90
2023-03-05T00:56:58.758Z,45.80
2023-03-05T00:59:28.026Z,45.80
2023-03-05T01:01:57.211Z,45.80
2023-03-05T01:04:28.067Z,45.80
2023-03-05T01:06:57.216Z,45.70
2023-03-05T01:09:26.645Z,45.70
2023-03-05T01:11:56.259Z,45.70
2023-03-05T01:14:27.926Z,45.70
2023-03-05T01:16:57.253Z,45.70
2023-03-05T01:19:27.869Z,45.70
2023-03-05T01:21:57.402Z,45.70
2023-03-05T01:24:26.608Z,45.60
2023-03-05T01:26:56.012Z,45.40
2023-03-05T01:29:25.200Z,45.50
2023-03-05T01:31:54.497Z,45.60
2023-03-05T01:34:23.913Z,45.50
2023-03-05T01:36:54.610Z,45.40
2023-03-05T01:39:23.811Z,45.20
2023-03-05T01:41:53.111Z,45.20
2023-03-05T01:44:27.357Z,45.20
2023-03-05T01:46:56.761Z,45.10
2023-03-05T01:49:28.163Z,45.10
2023-03-05T01:52:04.422Z,45.10
2023-03-05T01:54:36.732Z,45.10
2023-03-05T01:57:10.999Z,45.00
2023-03-05T01:59:42.183Z,45.00
2023-03-05T02:02:11.469Z,44.90
2023-03-05T02:04:47.381Z,44.80
2023-03-05T02:07:18.563Z,44.80
2023-03-05T02:09:47.782Z,44.70
2023-03-05T02:12:17.745Z,44.70
2023-03-05T02:14:49.207Z,44.70
2023-03-05T02:17:18.818Z,44.70
2023-03-05T02:19:49.919Z,44.70
2023-03-05T02:22:22.739Z,44.50
2023-03-05T02:24:52.310Z,44.50
2023-03-05T02:27:27.380Z,44.50
2023-03-05T02:29:56.989Z,44.50
2023-03-05T02:32:26.193Z,44.50
2023-03-05T02:34:55.373Z,44.40
2023-03-05T02:37:26.237Z,44.40
2023-03-05T02:39:55.421Z,44.30
2023-03-05T02:42:25.117Z,44.30
2023-03-05T02:44:54.257Z,44.30
2023-03-05T02:47:23.440Z,44.30
2023-03-05T02:49:53.062Z,44.20
2023-03-05T02:52:23.441Z,44.30
2023-03-05T02:54:55.274Z,44.20
2023-03-05T02:57:26.515Z,44.20
2023-03-05T02:59:57.097Z,44.10
2023-03-05T03:02:26.326Z,44.00
2023-03-05T03:04:55.510Z,43.90
2023-03-05T03:07:24.834Z,44.00
2023-03-05T03:09:55.449Z,44.00
2023-03-05T03:12:24.602Z,44.00
2023-03-05T03:14:53.794Z,44.00
2023-03-05T03:17:23.066Z,44.00
2023-03-05T03:19:52.260Z,43.90
2023-03-05T03:22:21.446Z,43.90
2023-03-05T03:24:50.675Z,43.90
2023-03-05T03:27:21.248Z,43.90
2023-03-05T03:29:50.440Z,43.80
2023-03-05T03:32:19.843Z,43.80
2023-03-05T03:34:49.244Z,43.80
2023-03-05T03:37:18.515Z,43.90
2023-03-05T03:39:47.734Z,43.80
2023-03-05T03:42:21.226Z,43.70
2023-03-05T03:44:51.049Z,43.70
2023-03-05T03:47:20.551Z,43.60
2023-03-05T03:49:49.858Z,43.60
2023-03-05T03:52:19.171Z,43.50
2023-03-05T03:54:48.308Z,43.40
2023-03-05T03:57:17.512Z,43.40
2023-03-05T03:59:48.097Z,43.40
2023-03-05T04:02:17.415Z,43.40
2023-03-05T04:04:46.680Z,43.40
2023-03-05T04:07:15.933Z,43.30
2023-03-05T04:09:45.276Z,43.30
2023-03-05T04:12:18.479Z,43.30
2023-03-05T04:14:50.038Z,43.30
2023-03-05T04:17:19.497Z,43.30
2023-03-05T04:19:48.622Z,43.20
2023-03-05T04:22:19.092Z,43.20
2023-03-05T04:24:48.368Z,43.10
2023-03-05T04:27:17.571Z,43.10
2023-03-05T04:29:48.442Z,43.10
2023-03-05T04:32:23.375Z,43.00
2023-03-05T04:34:52.842Z,43.00
2023-03-05T04:37:22.024Z,43.00
2023-03-05T04:39:51.170Z,43.00
2023-03-05T04:42:21.253Z,43.00
2023-03-05T04:44:52.749Z,42.90
2023-03-05T04:47:22.326Z,42.90
2023-03-05T04:49:51.607Z,42.90
2023-03-05T04:52:20.819Z,42.80
2023-03-05T04:54:49.929Z,42.80
2023-03-05T04:57:19.698Z,42.80
2023-03-05T04:59:48.845Z,42.70
2023-03-05T05:02:19.441Z,42.70
2023-03-05T05:04:48.820Z,42.70
2023-03-05T05:07:18.147Z,42.70
2023-03-05T05:09:47.392Z,42.60
2023-03-05T05:12:16.554Z,42.60
2023-03-05T05:14:45.759Z,42.60
2023-03-05T05:17:14.925Z,42.60
2023-03-05T05:19:45.508Z,42.50
2023-03-05T05:22:14.703Z,42.60
2023-03-05T05:24:43.937Z,42.40
2023-03-05T05:27:13.212Z,42.40
2023-03-05T05:29:42.409Z,42.30
2023-03-05T05:32:11.821Z,42.30
2023-03-05T05:34:40.965Z,42.30
2023-03-05T05:37:11.670Z,42.30
2023-03-05T05:39:40.876Z,42.30
2023-03-05T05:42:10.298Z,42.30
2023-03-05T05:44:39.417Z,42.30
2023-03-05T05:47:08.891Z,42.20
2023-03-05T05:49:38.079Z,42.20
2023-03-05T05:52:07.355Z,42.10
2023-03-05T05:54:38.022Z,42.10
2023-03-05T05:57:07.471Z,42.10
2023-03-05T05:59:37.631Z,42.10
2023-03-05T06:02:08.029Z,42.10
2023-03-05T06:04:37.667Z,42.10
2023-03-05T06:07:07.015Z,42.10
2023-03-05T06:09:38.476Z,42.00
2023-03-05T06:12:09.017Z,42.00
2023-03-05T06:14:38.276Z,42.00
2023-03-05T06:17:07.553Z,41.90
2023-03-05T06:19:36.743Z,42.00
2023-03-05T06:22:06.977Z,41.90
2023-03-05T06:24:38.490Z,41.90
2023-03-05T06:27:07.988Z,41.90
2023-03-05T06:29:37.403Z,42.00
2023-03-05T06:32:07.254Z,42.00
2023-03-05T06:34:36.580Z,42.00
2023-03-05T06:37:05.961Z,42.00
2023-03-05T06:39:35.314Z,42.00
2023-03-05T06:42:06.306Z,42.00
2023-03-05T06:44:35.491Z,42.00
2023-03-05T06:47:06.750Z,41.90
2023-03-05T06:49:36.035Z,41.90
2023-03-05T06:52:05.781Z,42.00
2023-03-05T06:54:35.110Z,41.90
2023-03-05T06:57:05.898Z,41.90
2023-03-05T06:59:35.037Z,41.90
2023-03-05T07:02:04.263Z,41.90
2023-03-05T07:04:33.497Z,41.80
2023-03-05T07:07:02.746Z,41.70
2023-03-05T07:09:32.045Z,41.60
2023-03-05T07:12:01.182Z,41.70
2023-03-05T07:14:31.727Z,41.60
2023-03-05T07:17:01.037Z,41.60
2023-03-05T07:19:30.202Z,41.60
2023-03-05T07:21:59.460Z,41.50
2023-03-05T07:24:30.139Z,41.60
2023-03-05T07:26:59.476Z,41.60
2023-03-05T07:29:29.912Z,42.00
2023-03-05T07:32:00.589Z,42.10
2023-03-05T07:34:29.898Z,42.30
2023-03-05T07:36:59.428Z,42.30
2023-03-05T07:39:28.871Z,42.10
2023-03-05T07:41:58.173Z,41.90
2023-03-05T07:44:32.899Z,41.60
2023-03-05T07:47:03.676Z,41.60
2023-03-05T07:49:33.061Z,41.50
2023-03-05T07:52:02.597Z,41.60
2023-03-05T07:54:32.510Z,41.60
2023-03-05T07:57:02.718Z,41.60
2023-03-05T07:59:32.861Z,41.70
2023-03-05T08:02:03.853Z,41.90
2023-03-05T08:04:33.563Z,43.70
2023-03-05T08:07:03.791Z,43.20
2023-03-05T08:09:33.065Z,42.80
2023-03-05T08:12:02.257Z,42.70
2023-03-05T08:14:52.779Z,42.90
2023-03-05T08:17:23.989Z,42.80
2023-03-05T08:19:58.501Z,42.80
2023-03-05T08:22:29.120Z,42.90
2023-03-05T08:24:59.679Z,42.80
2023-03-05T08:27:29.243Z,42.80
2023-03-05T08:29:58.493Z,42.70
2023-03-05T08:32:30.236Z,43.10
2023-03-05T08:35:00.193Z,42.80
2023-03-05T08:37:29.837Z,42.70
2023-03-05T08:39:59.288Z,43.30
2023-03-05T08:42:28.578Z,43.10
2023-03-05T08:44:57.891Z,43.10
2023-03-05T08:47:28.791Z,43.10
2023-03-05T08:49:58.879Z,43.40
2023-03-05T08:52:28.304Z,43.70
2023-03-05T08:54:57.688Z,43.30
2023-03-05T08:57:26.938Z,43.10
2023-03-05T08:59:56.750Z,43.20
2023-03-05T09:02:26.255Z,42.90
2023-03-05T09:04:56.991Z,42.70
2023-03-05T09:07:26.478Z,42.80
2023-03-05T09:09:55.666Z,42.80
2023-03-05T09:12:25.004Z,43.00
2023-03-05T09:14:56.197Z,43.70
2023-03-05T09:17:25.910Z,43.60
2023-03-05T09:19:57.857Z,43.70
2023-03-05T09:22:27.102Z,43.40
2023-03-05T09:24:56.317Z,43.70
2023-03-05T09:27:25.994Z,43.60
2023-03-05T09:29:55.826Z,43.80
2023-03-05T09:32:25.018Z,43.50
2023-03-05T09:34:54.245Z,42.90
2023-03-05T09:37:25.020Z,42.70
2023-03-05T09:39:54.197Z,42.70
2023-03-05T09:42:34.362Z,42.40
2023-03-05T09:45:18.587Z,42.80
2023-03-05T09:47:59.356Z,42.80
2023-03-05T09:50:37.677Z,43.20
2023-03-05T09:53:17.985Z,42.80
2023-03-05T09:55:52.072Z,43.10
2023-03-05T09:58:36.707Z,43.00
2023-03-05T10:01:10.060Z,43.30
2023-03-05T10:03:52.488Z,43.60
2023-03-05T10:06:26.542Z,43.70
2023-03-05T10:09:00.119Z,43.60
2023-03-05T10:11:51.504Z,44.00
2023-03-05T10:14:29.671Z,43.80
2023-03-05T10:17:38.283Z,43.70
2023-03-05T10:20:36.963Z,43.80
2023-03-05T10:23:21.520Z,44.00
2023-03-05T10:26:22.665Z,44.10
2023-03-05T10:29:03.490Z,44.00
2023-03-05T10:31:39.711Z,44.10
2023-03-05T10:34:39.636Z,44.20
2023-03-05T10:37:38.484Z,44.30
2023-03-05T10:40:20.105Z,44.30
2023-03-05T10:42:57.874Z,44.40
2023-03-05T10:45:32.302Z,44.50
2023-03-05T10:48:07.601Z,44.70
2023-03-05T10:50:41.741Z,44.70
2023-03-05T10:53:21.554Z,44.50
2023-03-05T10:55:56.270Z,45.40
2023-03-05T10:58:27.345Z,44.70
2023-03-05T11:01:05.917Z,44.30
2023-03-05T11:03:51.074Z,44.50
2023-03-05T11:06:37.425Z,44.80
2023-03-05T11:09:24.391Z,45.00
2023-03-05T11:12:12.847Z,44.90
2023-03-05T11:14:45.689Z,45.10
2023-03-05T11:17:33.043Z,44.40
2023-03-05T11:20:34.034Z,44.30
2023-03-05T11:23:10.873Z,44.20
2023-03-05T11:25:54.319Z,44.30
2023-03-05T11:28:33.012Z,44.60
2023-03-05T11:31:09.032Z,44.50
2023-03-05T11:33:39.063Z,44.40
2023-03-05T11:36:25.218Z,44.50
2023-03-05T11:38:56.872Z,44.50
2023-03-05T11:41:34.009Z,44.40
2023-03-05T11:44:05.926Z,44.40
2023-03-05T11:46:42.465Z,44.20
2023-03-05T11:49:17.283Z,44.20
2023-03-05T11:51:54.383Z,44.20
2023-03-05T11:54:31.799Z,44.10
2023-03-05T11:57:04.051Z,44.10
2023-03-05T11:59:37.165Z,44.00
2023-03-05T12:02:19.710Z,44.00
2023-03-05T12:04:50.127Z,44.00
2023-03-05T12:07:23.686Z,44.00
2023-03-05T12:09:54.505Z,43.90
2023-03-05T12:12:38.580Z,44.00
2023-03-05T12:15:35.128Z,43.90
2023-03-05T12:18:27.617Z,43.80
2023-03-05T12:21:05.775Z,43.70
2023-03-05T12:23:50.013Z,43.70
2023-03-05T12:26:19.811Z,43.70
2023-03-05T12:29:01.479Z,43.60
2023-03-05T12:31:39.535Z,43.50
2023-03-05T12:34:48.828Z,43.50
2023-03-05T12:37:51.446Z,43.50
2023-03-05T12:40:25.586Z,43.50
2023-03-05T12:42:57.135Z,43.30
2023-03-05T12:45:40.891Z,43.30
2023-03-05T12:48:45.585Z,43.30
2023-03-05T12:51:41.191Z,43.30
2023-03-05T12:54:31.089Z,43.30
2023-03-05T12:57:02.737Z,43.20
2023-03-05T12:59:43.577Z,43.20
2023-03-05T13:02:23.247Z,43.10
2023-03-05T13:04:54.688Z,43.10
2023-03-05T13:07:25.528Z,43.10
2023-03-05T13:09:55.937Z,43.10
2023-03-05T13:12:27.466Z,43.00
2023-03-05T13:15:01.341Z,43.00
2023-03-05T13:17:33.673Z,43.10
2023-03-05T13:20:07.637Z,43.00
2023-03-05T13:22:39.135Z,43.10
2023-03-05T13:25:17.198Z,43.10
2023-03-05T13:27:46.456Z,43.10
2023-03-05T13:30:23.372Z,43.10
2023-03-05T13:32:54.436Z,43.10
2023-03-05T13:35:24.311Z,43.10
2023-03-05T13:37:55.105Z,43.10
2023-03-05T13:40:26.613Z,43.00
2023-03-05T13:42:56.860Z,43.00
2023-03-05T13:45:28.927Z,43.00
2023-03-05T13:48:02.322Z,43.00
2023-03-05T13:50:33.795Z,42.90
2023-03-05T13:53:19.437Z,43.00
2023-03-05T13:55:49.209Z,43.00
2023-03-05T13:58:48.711Z,42.90
2023-03-05T14:01:27.866Z,43.00
2023-03-05T14:03:58.960Z,42.90
2023-03-05T14:06:31.143Z,43.00
2023-03-05T14:09:07.332Z,42.90
2023-03-05T14:11:37.396Z,43.00
2023-03-05T14:14:17.921Z,43.00
2023-03-05T14:16:47.599Z,42.90
2023-03-05T14:19:34.967Z,43.00
2023-03-05T14:22:05.602Z,42.90
2023-03-05T14:24:36.259Z,42.80
2023-03-05T14:27:13.559Z,42.80
2023-03-05T14:29:46.869Z,42.90
2023-03-05T14:32:24.659Z,42.80
2023-03-05T14:34:58.029Z,42.80
2023-03-05T14:37:30.919Z,42.90
2023-03-05T14:40:05.601Z,42.80
2023-03-05T14:42:39.183Z,42.70
2023-03-05T14:45:14.231Z,42.80
2023-03-05T14:47:43.766Z,42.80
2023-03-05T14:50:16.590Z,42.80
2023-03-05T14:52:46.527Z,42.80
2023-03-05T14:55:19.398Z,42.70
2023-03-05T14:57:51.781Z,42.80
2023-03-05T15:00:23.116Z,42.80
2023-03-05T15:02:52.537Z,42.80
2023-03-05T15:05:22.242Z,42.70
2023-03-05T15:07:52.710Z,42.80
2023-03-05T15:10:26.847Z,42.70
2023-03-05T15:12:56.151Z,42.70
2023-03-05T15:15:25.375Z,42.70
2023-03-05T15:17:55.251Z,42.70
2023-03-05T15:20:27.364Z,42.70
2023-03-05T15:22:57.033Z,42.70
2023-03-05T15:25:28.889Z,42.70
2023-03-05T15:27:59.701Z,42.60
2023-03-05T15:30:33.436Z,42.40
2023-03-05T15:33:05.440Z,42.90
2023-03-05T15:35:35.323Z,43.30
2023-03-05T15:38:05.113Z,43.60
2023-03-05T15:40:36.973Z,43.70
2023-03-05T15:43:07.212Z,43.60
2023-03-05T15:45:36.852Z,43.70
2023-03-05T15:48:06.968Z,43.80
2023-03-05T15:50:36.311Z,44.00
2023-03-05T15:53:05.983Z,44.60
2023-03-05T15:55:40.297Z,45.10
2023-03-05T15:58:10.358Z,45.30
2023-03-05T16:00:43.205Z,45.20
2023-03-05T16:03:12.973Z,45.20
2023-03-05T16:05:42.594Z,45.30
2023-03-05T16:08:12.098Z,44.70
2023-03-05T16:10:43.047Z,44.50
2023-03-05T16:13:14.966Z,44.60
2023-03-05T16:15:44.912Z,44.40
2023-03-05T16:18:16.869Z,44.50
2023-03-05T16:20:46.568Z,45.40
2023-03-05T16:23:16.058Z,44.60
2023-03-05T16:25:46.963Z,44.20
2023-03-05T16:28:16.661Z,44.10
2023-03-05T16:30:46.506Z,44.40
2023-03-05T16:33:16.041Z,44.70
2023-03-05T16:35:45.836Z,44.40
2023-03-05T16:38:16.606Z,44.30
2023-03-05T16:41:08.184Z,43.80
2023-03-05T16:43:37.106Z,43.90
2023-03-05T16:46:06.802Z,44.20
2023-03-05T16:48:36.148Z,43.90
2023-03-05T16:51:06.522Z,43.70
2023-03-05T16:53:35.819Z,43.90
2023-03-05T16:56:08.125Z,44.10
2023-03-05T16:58:39.014Z,44.10
2023-03-05T17:01:11.323Z,44.20
2023-03-05T17:03:41.756Z,44.40
2023-03-05T17:06:13.264Z,44.40
2023-03-05T17:08:43.445Z,44.40
2023-03-05T17:11:15.278Z,45.10
2023-03-05T17:13:47.644Z,43.30
2023-03-05T17:16:19.942Z,43.30
2023-03-05T17:18:49.751Z,43.60
2023-03-05T17:21:19.454Z,43.80
2023-03-05T17:23:48.821Z,43.70
2023-03-05T17:26:21.701Z,43.90
2023-03-05T17:28:53.573Z,44.10
2023-03-05T17:31:24.369Z,44.20
2023-03-05T17:33:55.522Z,44.20
2023-03-05T17:36:26.858Z,44.30
2023-03-05T17:38:56.636Z,44.40
2023-03-05T17:41:27.390Z,44.20
2023-03-05T17:43:56.770Z,44.10
2023-03-05T17:46:26.251Z,44.10
2023-03-05T17:48:55.428Z,43.70
2023-03-05T17:51:25.564Z,44.00
2023-03-05T17:53:54.789Z,43.90
2023-03-05T17:56:25.235Z,43.50
2023-03-05T17:58:57.976Z,44.00
2023-03-05T18:01:34.865Z,44.30
2023-03-05T18:04:04.366Z,44.20
2023-03-05T18:06:33.969Z,44.70
2023-03-05T18:09:03.322Z,44.70
2023-03-05T18:11:34.202Z,44.50
2023-03-05T18:14:05.746Z,44.60
2023-03-05T18:16:37.087Z,44.70
2023-03-05T18:19:06.650Z,44.70
2023-03-05T18:21:37.206Z,44.50
2023-03-05T18:24:07.707Z,44.80
2023-03-05T18:26:37.053Z,44.70
2023-03-05T18:29:08.137Z,44.70
2023-03-05T18:31:38.224Z,44.70
2023-03-05T18:34:07.613Z,44.80
2023-03-05T18:36:36.821Z,44.90
2023-03-05T18:39:06.177Z,44.30
2023-03-05T18:41:35.379Z,43.70
2023-03-05T18:44:07.390Z,43.60
2023-03-05T18:46:38.297Z,43.70
2023-03-05T18:49:08.714Z,43.70
2023-03-05T18:51:38.986Z,44.00
2023-03-05T18:54:08.310Z,44.30
2023-03-05T18:56:49.919Z,44.80
2023-03-05T18:59:19.240Z,44.50
2023-03-05T19:01:49.947Z,45.30
2023-03-05T19:04:43.323Z,45.50
2023-03-05T19:07:20.364Z,45.70
2023-03-05T19:09:54.928Z,45.40
2023-03-05T19:12:26.663Z,44.50
2023-03-05T19:14:55.894Z,44.70
2023-03-05T19:17:27.422Z,44.40
2023-03-05T19:19:59.197Z,44.60
2023-03-05T19:22:29.665Z,44.70
2023-03-05T19:25:02.002Z,44.90
2023-03-05T19:27:31.565Z,45.20
2023-03-05T19:30:01.520Z,45.10
2023-03-05T19:32:32.991Z,45.10
2023-03-05T19:35:02.755Z,45.20
2023-03-05T19:37:33.504Z,44.90
2023-03-05T19:40:03.418Z,44.90
2023-03-05T19:42:33.478Z,44.80
2023-03-05T19:45:03.175Z,44.80
2023-03-05T19:47:34.600Z,44.90
2023-03-05T19:50:05.631Z,44.90
2023-03-05T19:52:35.554Z,44.70
2023-03-05T19:55:05.256Z,44.80
2023-03-05T19:57:35.144Z,44.60
2023-03-05T20:00:05.777Z,44.70
2023-03-05T20:02:36.782Z,44.70
2023-03-05T20:05:07.292Z,44.60
2023-03-05T20:07:36.769Z,44.70
2023-03-05T20:10:07.185Z,44.60
2023-03-05T20:12:36.829Z,44.50
2023-03-05T20:15:07.299Z,44.40
2023-03-05T20:17:38.638Z,44.60
2023-03-05T20:20:09.508Z,44.40
2023-03-05T20:22:39.532Z,44.50
2023-03-05T20:25:09.481Z,43.60
2023-03-05T20:27:39.033Z,43.50
2023-03-05T20:30:10.849Z,44.00
2023-03-05T20:32:42.435Z,43.90
2023-03-05T20:35:15.543Z,43.40
2023-03-05T20:38:00.448Z,43.40
2023-03-05T20:40:29.730Z,43.40
2023-03-05T20:42:58.899Z,43.50
2023-03-05T20:45:28.172Z,43.40
2023-03-05T20:47:58.750Z,43.90
2023-03-05T20:50:29.133Z,43.10
2023-03-05T20:52:58.952Z,43.00
2023-03-05T20:55:28.885Z,42.90
2023-03-05T20:57:58.432Z,43.00
2023-03-05T21:00:27.957Z,42.80
2023-03-05T21:02:58.914Z,42.70
2023-03-05T21:05:30.348Z,42.60
2023-03-05T21:08:00.469Z,42.50
2023-03-05T21:10:29.720Z,42.40
2023-03-05T21:13:00.758Z,42.30
2023-03-05T21:15:31.371Z,42.20
2023-03-05T21:18:02.232Z,42.00
2023-03-05T21:20:32.036Z,41.90
2023-03-05T21:23:01.309Z,41.90
2023-03-05T21:25:31.707Z,41.80
2023-03-05T21:28:03.409Z,41.70
2023-03-05T21:30:35.250Z,41.70
2023-03-05T21:33:09.100Z,41.70
2023-03-05T21:35:39.236Z,41.60
2023-03-05T21:38:09.954Z,41.60
2023-03-05T21:40:43.752Z,41.50
2023-03-05T21:43:13.927Z,41.50
2023-03-05T21:45:44.028Z,41.50
2023-03-05T21:48:15.147Z,41.40
2023-03-05T21:50:46.090Z,41.40
2023-03-05T21:53:16.873Z,41.30
2023-03-05T21:56:03.252Z,41.20
2023-03-05T21:58:33.719Z,41.20
2023-03-05T22:01:03.371Z,41.10
2023-03-05T22:03:34.952Z,41.10
2023-03-05T22:06:04.446Z,41.00
2023-03-05T22:08:33.620Z,41.00
2023-03-05T22:11:03.003Z,41.00
2023-03-05T22:13:32.183Z,41.00
2023-03-05T22:16:01.484Z,40.90
2023-03-05T22:18:32.264Z,40.90
2023-03-05T22:21:03.575Z,40.80
2023-03-05T22:23:35.396Z,40.80
2023-03-05T22:26:06.405Z,40.80
2023-03-05T22:28:39.074Z,40.70
2023-03-05T22:31:08.463Z,40.70
2023-03-05T22:33:37.691Z,40.60
2023-03-05T22:36:13.395Z,40.60
2023-03-05T22:38:42.862Z,40.60
2023-03-05T22:41:14.195Z,40.50
2023-03-05T22:43:43.846Z,40.50
2023-03-05T22:46:15.348Z,40.50
2023-03-05T22:48:44.842Z,40.50
2023-03-05T22:51:16.148Z,40.40
2023-03-05T22:53:46.214Z,40.50
2023-03-05T22:56:16.988Z,40.40
2023-03-05T22:58:46.898Z,40.40
2023-03-05T23:01:17.998Z,40.40
2023-03-05T23:03:55.665Z,40.40
2023-03-05T23:06:26.396Z,40.30
2023-03-05T23:08:55.882Z,40.30
2023-03-05T23:11:25.075Z,40.30
2023-03-05T23:13:54.213Z,40.30
2023-03-05T23:16:23.462Z,40.40
2023-03-05T23:18:52.620Z,40.40
2023-03-05T23:21:21.990Z,40.30
2023-03-05T23:23:53.279Z,40.40
2023-03-05T23:26:22.827Z,40.30
2023-03-05T23:28:52.053Z,40.30
2023-03-05T23:31:21.316Z,40.20
2023-03-05T23:33:50.562Z,40.20
2023-03-05T23:36:20.424Z,40.20
2023-03-05T23:38:51.803Z,40.20
2023-03-05T23:41:22.379Z,40.30
2023-03-05T23:43:51.659Z,40.20
2023-03-05T23:46:20.949Z,40.10
2023-03-05T23:48:50.274Z,40.10
2023-03-05T23:51:19.514Z,40.10
2023-03-05T23:53:48.969Z,40.10
2023-03-05T23:56:18.412Z,40.10
2023-03-05T23:58:48.982Z,40.10
